Aviation Digital Data Service (ADDS)

Output produced by TAFs form (0217 UTC 18 January 2018)
found at http://www.aviationweather.gov/adds/tafs/
 
KPOU 172353Z 1800/1824 36008KT P6SM OVC020 
     TEMPO 1801/1804 SCT020 
     FM180400 32004KT P6SM SCT025 BKN250 
     FM181200 31005KT P6SM SCT250 
     FM181700 31010G16KT P6SM FEW040